Startpagina
METAR-TAF:

METAR-TAF

Vliegvelden :

Geilenkirchen, Duitsland

breedte: 50-57-39N, lengte: 006-2-33E, hoogte: 90 m

Actueel weer

Dit bericht is 43 minuten geleden gemaakt, om 12:50 UTC
Wind 9 kt uit het oosten
Temperatuur 11°C
Vochtigheid 66%
Druk 1027 hPa
Zicht 10 km of meer
geen wolken onder 1500 m en geen cumulonimbus

METAR: ETNG 161250Z 10009KT CAVOK 11/05 Q1027 NOSIG

Tijdstip: 14:33 (13:33 UTC)

Verwachting

Dit bericht is 2 uur en het 33 minuten geleden gemaakt, om 11:00 UTC
Verwachting geldig van 16 om 12 UTC tot 17 om 03 UTC
Wind 8 kt uit het oosten met uitschieters tot 15 kt
Zicht 10 km of meer
geen wolken onder 1500 m en geen cumulonimbus

TAF: ETNG 161100Z 1612/1703 10008G15KT CAVOK

Waarnemingen en weersverwachtingen van meer dan 4000 vliegvelden (METAR en TAF).

De beschikbare stations zijn de gele en rode punten op de kaart.

Ga met uw muis naar het station om de naam te zien.

Klik dan om waarnemingen en weersverwachtingen te zien.

kaart wijzigen: klik op de groene knoppen met een zwart kruis om in te zoomen, op de groene knop met een streepje om uit te zoomen of op de groene pijlen voor aangrenzende kaarten.


METAR-TAF: